CheckWX is a tool to help pilots better visualize weather data.  It is not intended as a substitute for an official pre-flight weather briefing.

04:44:16 UTC

CZVL TAF
Edmonton / Villeneuve Airport
Edmonton, Canada
TAF AMD CZVL 230242Z 2302/2312 VRB03KT P6SM SKC TEMPO 2302/2309 5SM HZ BR FM230900 VRB03KT 6SM BR FEW005 TEMPO 2309/2312 11/2SM BR OVC005 RMK FCST BASED ON AUTO OBS. NXT FCST BY 230600Z

Mar-23@
02:00 UTC

Mar-23 @ 02:00 UTC

Mar-23@
09:00 UTC

Mar-23 @ 09:00 UTC

TAF AMD CZVL 230242Z 2302/2312 VRB03KT P6SM SKC
Wind
  • Variable at 3 KTS
Cloud Levels
  • Clear skies

Mar-23@
02:00 UTC

Mar-23 @ 02:00 UTC

Mar-23@
09:00 UTC

Mar-23 @ 09:00 UTC

TEMPO 2302/2309 5SM HZ BR

Temporary

Temporary Changes expected for less than half the time period

Conditions
Haze, Mist

Mar-23@
09:00 UTC

Mar-23 @ 09:00 UTC

Mar-23@
12:00 UTC

Mar-23 @ 12:00 UTC

TEMPO 2309/2312 11/2SM BR OVC005 RMK FCST BASED ON AUTO OBS. NXT FCST BY 230600Z

Temporary

Temporary Changes expected for less than half the time period

Conditions
Mist
Cloud Levels
  • Overcast at 500' AGL

Mar-23@
09:00 UTC

Mar-23 @ 09:00 UTC

Mar-23@
12:00 UTC

Mar-23 @ 12:00 UTC

FM230900 VRB03KT 6SM BR FEW005

From

From Standard forecast or significant change

Wind
  • Variable at 3 KTS
Conditions
Mist
Cloud Levels
  • Few at 500' AGL